sensor_id;sensor_type;location;lat;lon;timestamp;temperature;humidity
19652;DHT22;9974;52.146;14.668;2023-08-06T00:00:26;16.20;99.90
19652;DHT22;9974;52.146;14.668;2023-08-06T00:02:52;15.70;99.90
19652;DHT22;9974;52.146;14.668;2023-08-06T00:05:17;16.50;99.90
19652;DHT22;9974;52.146;14.668;2023-08-06T00:07:44;15.90;99.90
19652;DHT22;9974;52.146;14.668;2023-08-06T00:10:10;15.90;99.90
19652;DHT22;9974;52.146;14.668;2023-08-06T00:15:02;16.30;99.90
19652;DHT22;9974;52.146;14.668;2023-08-06T00:17:28;16.20;99.90
19652;DHT22;9974;52.146;14.668;2023-08-06T00:19:54;16.10;99.90
19652;DHT22;9974;52.146;14.668;2023-08-06T00:24:46;16.50;99.90
19652;DHT22;9974;52.146;14.668;2023-08-06T00:27:11;15.70;99.90
19652;DHT22;9974;52.146;14.668;2023-08-06T00:29:37;16.10;99.90
19652;DHT22;9974;52.146;14.668;2023-08-06T00:32:03;15.70;99.90
19652;DHT22;9974;52.146;14.668;2023-08-06T00:34:28;16.30;99.90
19652;DHT22;9974;52.146;14.668;2023-08-06T00:36:56;16.00;99.90
19652;DHT22;9974;52.146;14.668;2023-08-06T00:39:22;16.00;99.90
19652;DHT22;9974;52.146;14.668;2023-08-06T00:41:48;16.20;99.90
19652;DHT22;9974;52.146;14.668;2023-08-06T00:46:40;15.80;99.90
19652;DHT22;9974;52.146;14.668;2023-08-06T00:49:06;15.60;99.90
19652;DHT22;9974;52.146;14.668;2023-08-06T00:51:32;15.90;99.90
19652;DHT22;9974;52.146;14.668;2023-08-06T00:53:58;16.30;99.90
19652;DHT22;9974;52.146;14.668;2023-08-06T00:56:24;16.20;99.90
19652;DHT22;9974;52.146;14.668;2023-08-06T00:58:51;15.70;99.90
19652;DHT22;9974;52.146;14.668;2023-08-06T01:01:16;15.50;99.90
19652;DHT22;9974;52.146;14.668;2023-08-06T01:03:42;15.50;99.90
19652;DHT22;9974;52.146;14.668;2023-08-06T01:06:08;16.00;99.90
19652;DHT22;9974;52.146;14.668;2023-08-06T01:08:52;16.40;99.90
19652;DHT22;9974;52.146;14.668;2023-08-06T01:11:24;15.70;99.90
19652;DHT22;9974;52.146;14.668;2023-08-06T01:14:02;15.70;99.90
19652;DHT22;9974;52.146;14.668;2023-08-06T01:16:33;16.20;99.90
19652;DHT22;9974;52.146;14.668;2023-08-06T01:18:59;16.30;99.90
19652;DHT22;9974;52.146;14.668;2023-08-06T01:21:25;15.90;99.90
19652;DHT22;9974;52.146;14.668;2023-08-06T01:23:50;15.90;99.90
19652;DHT22;9974;52.146;14.668;2023-08-06T01:26:30;16.00;99.90
19652;DHT22;9974;52.146;14.668;2023-08-06T01:31:37;15.80;99.90
19652;DHT22;9974;52.146;14.668;2023-08-06T01:34:13;15.80;99.90
19652;DHT22;9974;52.146;14.668;2023-08-06T01:41:34;16.00;99.90
19652;DHT22;9974;52.146;14.668;2023-08-06T01:43:59;16.00;99.90
19652;DHT22;9974;52.146;14.668;2023-08-06T01:46:26;16.10;99.90
19652;DHT22;9974;52.146;14.668;2023-08-06T01:48:51;16.40;99.90
19652;DHT22;9974;52.146;14.668;2023-08-06T01:56:09;16.10;99.90
19652;DHT22;9974;52.146;14.668;2023-08-06T01:58:35;15.50;99.90
19652;DHT22;9974;52.146;14.668;2023-08-06T02:01:01;15.90;99.90
19652;DHT22;9974;52.146;14.668;2023-08-06T02:03:27;15.80;99.90
19652;DHT22;9974;52.146;14.668;2023-08-06T02:05:53;15.80;99.90
19652;DHT22;9974;52.146;14.668;2023-08-06T02:08:18;16.10;99.90
19652;DHT22;9974;52.146;14.668;2023-08-06T02:10:45;16.00;99.90
19652;DHT22;9974;52.146;14.668;2023-08-06T02:13:11;16.40;99.90
19652;DHT22;9974;52.146;14.668;2023-08-06T02:15:45;15.90;99.90
19652;DHT22;9974;52.146;14.668;2023-08-06T02:18:13;16.00;99.90
19652;DHT22;9974;52.146;14.668;2023-08-06T02:20:40;15.50;99.90
19652;DHT22;9974;52.146;14.668;2023-08-06T02:23:05;16.30;99.90
19652;DHT22;9974;52.146;14.668;2023-08-06T02:25:31;15.80;99.90
19652;DHT22;9974;52.146;14.668;2023-08-06T02:27:57;16.10;99.90
19652;DHT22;9974;52.146;14.668;2023-08-06T02:30:22;15.70;99.90
19652;DHT22;9974;52.146;14.668;2023-08-06T02:32:48;15.70;99.90
19652;DHT22;9974;52.146;14.668;2023-08-06T02:35:14;15.80;99.90
19652;DHT22;9974;52.146;14.668;2023-08-06T02:37:40;16.00;99.90
19652;DHT22;9974;52.146;14.668;2023-08-06T02:40:15;16.20;99.90
19652;DHT22;9974;52.146;14.668;2023-08-06T02:42:40;15.20;99.90
19652;DHT22;9974;52.146;14.668;2023-08-06T02:47:32;16.10;99.90
19652;DHT22;9974;52.146;14.668;2023-08-06T02:52:24;15.80;99.90
19652;DHT22;9974;52.146;14.668;2023-08-06T02:54:50;15.30;99.90
19652;DHT22;9974;52.146;14.668;2023-08-06T02:57:15;15.40;99.90
19652;DHT22;9974;52.146;14.668;2023-08-06T03:02:07;16.00;99.90
19652;DHT22;9974;52.146;14.668;2023-08-06T03:06:59;15.60;99.90
19652;DHT22;9974;52.146;14.668;2023-08-06T03:09:24;15.80;99.90
19652;DHT22;9974;52.146;14.668;2023-08-06T03:11:50;15.80;99.90
19652;DHT22;9974;52.146;14.668;2023-08-06T03:16:42;15.20;99.90
19652;DHT22;9974;52.146;14.668;2023-08-06T03:19:07;15.60;99.90
19652;DHT22;9974;52.146;14.668;2023-08-06T03:23:59;15.70;99.90
19652;DHT22;9974;52.146;14.668;2023-08-06T03:28:51;15.20;99.90
19652;DHT22;9974;52.146;14.668;2023-08-06T03:31:16;15.00;99.90
19652;DHT22;9974;52.146;14.668;2023-08-06T03:33:42;15.20;99.90
19652;DHT22;9974;52.146;14.668;2023-08-06T03:36:08;15.10;99.90
19652;DHT22;9974;52.146;14.668;2023-08-06T03:40:59;15.90;99.90
19652;DHT22;9974;52.146;14.668;2023-08-06T03:43:25;15.50;99.90
19652;DHT22;9974;52.146;14.668;2023-08-06T03:45:51;15.20;99.90
19652;DHT22;9974;52.146;14.668;2023-08-06T03:50:42;15.00;99.90
19652;DHT22;9974;52.146;14.668;2023-08-06T03:53:08;15.00;99.90
19652;DHT22;9974;52.146;14.668;2023-08-06T03:55:34;14.70;99.90
19652;DHT22;9974;52.146;14.668;2023-08-06T03:57:59;14.70;99.90
19652;DHT22;9974;52.146;14.668;2023-08-06T04:00:25;15.40;99.90
19652;DHT22;9974;52.146;14.668;2023-08-06T04:05:17;15.50;99.90
19652;DHT22;9974;52.146;14.668;2023-08-06T04:07:42;15.00;99.90
19652;DHT22;9974;52.146;14.668;2023-08-06T04:10:08;15.60;99.90
19652;DHT22;9974;52.146;14.668;2023-08-06T04:12:34;15.30;99.90
19652;DHT22;9974;52.146;14.668;2023-08-06T04:15:03;15.10;99.90
19652;DHT22;9974;52.146;14.668;2023-08-06T04:19:55;14.90;99.90
19652;DHT22;9974;52.146;14.668;2023-08-06T04:22:23;15.30;99.90
19652;DHT22;9974;52.146;14.668;2023-08-06T04:24:49;15.00;99.90
19652;DHT22;9974;52.146;14.668;2023-08-06T04:27:16;15.20;99.90
19652;DHT22;9974;52.146;14.668;2023-08-06T04:29:43;15.00;99.90
19652;DHT22;9974;52.146;14.668;2023-08-06T04:32:10;14.60;99.90
19652;DHT22;9974;52.146;14.668;2023-08-06T04:34:36;14.90;99.90
19652;DHT22;9974;52.146;14.668;2023-08-06T04:37:03;15.50;99.90
19652;DHT22;9974;52.146;14.668;2023-08-06T04:39:30;14.80;99.90
19652;DHT22;9974;52.146;14.668;2023-08-06T04:41:58;14.80;99.90
19652;DHT22;9974;52.146;14.668;2023-08-06T04:44:24;15.20;99.90
19652;DHT22;9974;52.146;14.668;2023-08-06T04:46:50;15.40;99.90
19652;DHT22;9974;52.146;14.668;2023-08-06T04:49:16;15.30;99.90
19652;DHT22;9974;52.146;14.668;2023-08-06T04:51:42;15.40;99.90
19652;DHT22;9974;52.146;14.668;2023-08-06T04:54:08;15.20;99.90
19652;DHT22;9974;52.146;14.668;2023-08-06T04:59:00;14.70;99.90
19652;DHT22;9974;52.146;14.668;2023-08-06T05:01:26;14.70;99.90
19652;DHT22;9974;52.146;14.668;2023-08-06T05:03:52;15.50;99.90
19652;DHT22;9974;52.146;14.668;2023-08-06T05:08:43;14.50;99.90
19652;DHT22;9974;52.146;14.668;2023-08-06T05:11:09;14.90;99.90
19652;DHT22;9974;52.146;14.668;2023-08-06T05:18:27;14.80;99.90
19652;DHT22;9974;52.146;14.668;2023-08-06T05:20:53;15.50;99.90
19652;DHT22;9974;52.146;14.668;2023-08-06T05:25:45;15.40;99.90
19652;DHT22;9974;52.146;14.668;2023-08-06T05:28:10;14.80;99.90
19652;DHT22;9974;52.146;14.668;2023-08-06T05:30:40;15.00;99.90
19652;DHT22;9974;52.146;14.668;2023-08-06T05:35:32;15.20;99.90
19652;DHT22;9974;52.146;14.668;2023-08-06T05:37:57;15.10;99.90
19652;DHT22;9974;52.146;14.668;2023-08-06T05:45:19;15.50;99.90
19652;DHT22;9974;52.146;14.668;2023-08-06T05:50:13;15.30;99.90
19652;DHT22;9974;52.146;14.668;2023-08-06T05:52:38;15.00;99.90
19652;DHT22;9974;52.146;14.668;2023-08-06T05:55:04;15.30;99.90
19652;DHT22;9974;52.146;14.668;2023-08-06T06:04:48;15.60;99.90
19652;DHT22;9974;52.146;14.668;2023-08-06T06:12:06;15.70;99.90
19652;DHT22;9974;52.146;14.668;2023-08-06T06:14:32;15.20;99.90
19652;DHT22;9974;52.146;14.668;2023-08-06T06:16:59;15.60;99.90
19652;DHT22;9974;52.146;14.668;2023-08-06T06:19:25;15.10;99.90
19652;DHT22;9974;52.146;14.668;2023-08-06T06:21:51;14.90;99.90
19652;DHT22;9974;52.146;14.668;2023-08-06T06:24:17;15.80;99.90
19652;DHT22;9974;52.146;14.668;2023-08-06T06:29:08;15.80;99.90
19652;DHT22;9974;52.146;14.668;2023-08-06T06:31:34;16.00;99.90
19652;DHT22;9974;52.146;14.668;2023-08-06T06:34:00;15.30;99.90
19652;DHT22;9974;52.146;14.668;2023-08-06T06:41:18;15.90;99.90
19652;DHT22;9974;52.146;14.668;2023-08-06T06:43:44;15.30;99.90
19652;DHT22;9974;52.146;14.668;2023-08-06T06:48:36;15.60;99.90
19652;DHT22;9974;52.146;14.668;2023-08-06T06:51:01;16.00;99.90
19652;DHT22;9974;52.146;14.668;2023-08-06T06:53:28;16.10;99.90
19652;DHT22;9974;52.146;14.668;2023-08-06T06:55:54;16.20;99.90
19652;DHT22;9974;52.146;14.668;2023-08-06T06:58:20;15.70;99.90
19652;DHT22;9974;52.146;14.668;2023-08-06T07:00:47;15.50;99.90
19652;DHT22;9974;52.146;14.668;2023-08-06T07:03:14;16.00;99.90
19652;DHT22;9974;52.146;14.668;2023-08-06T07:05:40;15.90;99.90
19652;DHT22;9974;52.146;14.668;2023-08-06T07:12:58;16.20;99.90
19652;DHT22;9974;52.146;14.668;2023-08-06T07:17:49;16.00;99.90
19652;DHT22;9974;52.146;14.668;2023-08-06T07:22:41;15.70;99.90
19652;DHT22;9974;52.146;14.668;2023-08-06T07:25:07;16.10;99.90
19652;DHT22;9974;52.146;14.668;2023-08-06T07:32:26;16.10;99.90
19652;DHT22;9974;52.146;14.668;2023-08-06T07:34:53;16.20;99.90
19652;DHT22;9974;52.146;14.668;2023-08-06T07:37:22;16.00;99.90
19652;DHT22;9974;52.146;14.668;2023-08-06T07:39:48;15.60;99.90
19652;DHT22;9974;52.146;14.668;2023-08-06T07:42:14;16.30;99.90
19652;DHT22;9974;52.146;14.668;2023-08-06T07:44:39;15.60;99.90
19652;DHT22;9974;52.146;14.668;2023-08-06T07:47:05;15.50;99.90
19652;DHT22;9974;52.146;14.668;2023-08-06T07:49:31;15.50;99.90
19652;DHT22;9974;52.146;14.668;2023-08-06T07:51:56;16.30;99.90
19652;DHT22;9974;52.146;14.668;2023-08-06T07:56:49;15.50;99.90
19652;DHT22;9974;52.146;14.668;2023-08-06T07:59:15;16.00;99.90
19652;DHT22;9974;52.146;14.668;2023-08-06T08:04:07;17.00;99.90
19652;DHT22;9974;52.146;14.668;2023-08-06T08:06:33;16.30;99.90
19652;DHT22;9974;52.146;14.668;2023-08-06T08:08:59;16.40;99.90
19652;DHT22;9974;52.146;14.668;2023-08-06T08:11:25;16.00;99.90
19652;DHT22;9974;52.146;14.668;2023-08-06T08:13:51;15.60;99.90
19652;DHT22;9974;52.146;14.668;2023-08-06T08:16:17;15.70;99.90
19652;DHT22;9974;52.146;14.668;2023-08-06T08:18:43;15.70;99.90
19652;DHT22;9974;52.146;14.668;2023-08-06T08:21:08;16.40;99.90
19652;DHT22;9974;52.146;14.668;2023-08-06T08:23:34;16.10;99.90
19652;DHT22;9974;52.146;14.668;2023-08-06T08:28:27;15.90;99.90
19652;DHT22;9974;52.146;14.668;2023-08-06T08:30:53;16.40;99.90
19652;DHT22;9974;52.146;14.668;2023-08-06T08:33:18;16.10;99.90
19652;DHT22;9974;52.146;14.668;2023-08-06T08:35:45;16.60;99.90
19652;DHT22;9974;52.146;14.668;2023-08-06T08:38:11;16.80;99.90
19652;DHT22;9974;52.146;14.668;2023-08-06T08:40:43;16.00;99.90
19652;DHT22;9974;52.146;14.668;2023-08-06T08:43:12;16.50;99.90
19652;DHT22;9974;52.146;14.668;2023-08-06T08:45:39;16.80;99.90
19652;DHT22;9974;52.146;14.668;2023-08-06T08:48:06;16.10;99.90
19652;DHT22;9974;52.146;14.668;2023-08-06T08:50:32;16.00;99.90
19652;DHT22;9974;52.146;14.668;2023-08-06T08:52:58;16.80;99.90
19652;DHT22;9974;52.146;14.668;2023-08-06T08:55:24;16.00;99.90
19652;DHT22;9974;52.146;14.668;2023-08-06T08:57:50;16.50;99.90
19652;DHT22;9974;52.146;14.668;2023-08-06T09:00:15;16.80;99.90
19652;DHT22;9974;52.146;14.668;2023-08-06T09:02:41;16.30;99.90
19652;DHT22;9974;52.146;14.668;2023-08-06T09:05:09;16.30;99.90
19652;DHT22;9974;52.146;14.668;2023-08-06T09:07:43;16.60;99.90
19652;DHT22;9974;52.146;14.668;2023-08-06T09:10:16;16.60;99.90
19652;DHT22;9974;52.146;14.668;2023-08-06T09:12:45;16.60;99.90
19652;DHT22;9974;52.146;14.668;2023-08-06T09:15:11;16.70;99.90
19652;DHT22;9974;52.146;14.668;2023-08-06T09:17:37;16.30;99.90
19652;DHT22;9974;52.146;14.668;2023-08-06T09:20:12;16.60;99.90
19652;DHT22;9974;52.146;14.668;2023-08-06T09:25:06;16.40;99.90
19652;DHT22;9974;52.146;14.668;2023-08-06T09:27:36;17.20;99.90
19652;DHT22;9974;52.146;14.668;2023-08-06T09:30:03;16.80;99.90
19652;DHT22;9974;52.146;14.668;2023-08-06T09:32:48;16.40;99.90
19652;DHT22;9974;52.146;14.668;2023-08-06T09:35:21;16.90;99.90
19652;DHT22;9974;52.146;14.668;2023-08-06T09:40:26;16.90;99.90
19652;DHT22;9974;52.146;14.668;2023-08-06T09:42:55;17.10;99.90
19652;DHT22;9974;52.146;14.668;2023-08-06T09:45:22;17.20;99.90
19652;DHT22;9974;52.146;14.668;2023-08-06T09:47:49;17.10;99.90
19652;DHT22;9974;52.146;14.668;2023-08-06T09:52:47;16.50;99.90
19652;DHT22;9974;52.146;14.668;2023-08-06T09:55:14;17.30;99.90
19652;DHT22;9974;52.146;14.668;2023-08-06T09:57:41;16.80;99.90
19652;DHT22;9974;52.146;14.668;2023-08-06T10:00:11;17.10;99.90
19652;DHT22;9974;52.146;14.668;2023-08-06T10:02:38;16.50;99.90
19652;DHT22;9974;52.146;14.668;2023-08-06T10:05:05;16.80;99.90
19652;DHT22;9974;52.146;14.668;2023-08-06T10:07:31;16.90;99.90
19652;DHT22;9974;52.146;14.668;2023-08-06T10:09:58;17.00;99.90
19652;DHT22;9974;52.146;14.668;2023-08-06T10:12:25;17.40;99.90
19652;DHT22;9974;52.146;14.668;2023-08-06T10:14:55;17.10;99.90
19652;DHT22;9974;52.146;14.668;2023-08-06T10:17:23;16.70;99.90
19652;DHT22;9974;52.146;14.668;2023-08-06T10:19:50;16.90;99.90
19652;DHT22;9974;52.146;14.668;2023-08-06T10:22:17;17.50;99.90
19652;DHT22;9974;52.146;14.668;2023-08-06T10:24:51;17.40;99.90
19652;DHT22;9974;52.146;14.668;2023-08-06T10:27:32;17.10;99.90
19652;DHT22;9974;52.146;14.668;2023-08-06T10:30:31;16.40;99.90
19652;DHT22;9974;52.146;14.668;2023-08-06T10:32:58;17.40;99.90
19652;DHT22;9974;52.146;14.668;2023-08-06T10:35:44;17.20;99.90
19652;DHT22;9974;52.146;14.668;2023-08-06T10:38:19;16.70;99.90
19652;DHT22;9974;52.146;14.668;2023-08-06T10:41:01;17.10;99.90
19652;DHT22;9974;52.146;14.668;2023-08-06T10:43:35;16.90;99.90
19652;DHT22;9974;52.146;14.668;2023-08-06T10:46:09;17.00;99.90
19652;DHT22;9974;52.146;14.668;2023-08-06T10:48:37;16.70;99.90
19652;DHT22;9974;52.146;14.668;2023-08-06T10:51:08;16.70;99.90
19652;DHT22;9974;52.146;14.668;2023-08-06T10:53:35;17.30;99.90
19652;DHT22;9974;52.146;14.668;2023-08-06T10:56:02;17.30;99.90
19652;DHT22;9974;52.146;14.668;2023-08-06T10:58:32;16.50;99.90
19652;DHT22;9974;52.146;14.668;2023-08-06T11:00:59;17.00;99.90
19652;DHT22;9974;52.146;14.668;2023-08-06T11:03:26;16.70;99.90
19652;DHT22;9974;52.146;14.668;2023-08-06T11:05:52;16.60;99.90
19652;DHT22;9974;52.146;14.668;2023-08-06T11:08:28;16.60;99.90
19652;DHT22;9974;52.146;14.668;2023-08-06T11:11:10;16.90;99.90
19652;DHT22;9974;52.146;14.668;2023-08-06T11:16:06;16.60;99.90
19652;DHT22;9974;52.146;14.668;2023-08-06T11:18:32;16.90;99.90
19652;DHT22;9974;52.146;14.668;2023-08-06T11:20:59;17.20;99.90
19652;DHT22;9974;52.146;14.668;2023-08-06T11:23:29;16.90;99.90
19652;DHT22;9974;52.146;14.668;2023-08-06T11:25:58;16.80;99.90
19652;DHT22;9974;52.146;14.668;2023-08-06T11:28:24;16.50;99.90
19652;DHT22;9974;52.146;14.668;2023-08-06T11:30:51;16.60;99.90
19652;DHT22;9974;52.146;14.668;2023-08-06T11:33:23;17.20;99.90
19652;DHT22;9974;52.146;14.668;2023-08-06T11:35:54;17.10;99.90
19652;DHT22;9974;52.146;14.668;2023-08-06T11:38:24;17.20;99.90
19652;DHT22;9974;52.146;14.668;2023-08-06T11:43:19;16.50;99.90
19652;DHT22;9974;52.146;14.668;2023-08-06T11:45:48;17.30;99.90
19652;DHT22;9974;52.146;14.668;2023-08-06T11:48:15;17.30;99.90
19652;DHT22;9974;52.146;14.668;2023-08-06T11:50:40;17.00;99.90
19652;DHT22;9974;52.146;14.668;2023-08-06T11:53:06;16.90;99.90
19652;DHT22;9974;52.146;14.668;2023-08-06T11:55:32;16.70;99.90
19652;DHT22;9974;52.146;14.668;2023-08-06T11:58:02;17.20;99.90
19652;DHT22;9974;52.146;14.668;2023-08-06T12:00:29;16.80;99.90
19652;DHT22;9974;52.146;14.668;2023-08-06T12:02:56;17.20;99.90
19652;DHT22;9974;52.146;14.668;2023-08-06T12:05:23;17.30;99.90
19652;DHT22;9974;52.146;14.668;2023-08-06T12:07:55;17.30;99.90
19652;DHT22;9974;52.146;14.668;2023-08-06T12:10:27;17.10;99.90
19652;DHT22;9974;52.146;14.668;2023-08-06T12:12:54;16.60;99.90
19652;DHT22;9974;52.146;14.668;2023-08-06T12:15:20;17.00;99.90
19652;DHT22;9974;52.146;14.668;2023-08-06T12:17:46;17.00;99.90
19652;DHT22;9974;52.146;14.668;2023-08-06T12:20:12;16.10;99.90
19652;DHT22;9974;52.146;14.668;2023-08-06T12:22:38;16.80;99.90
19652;DHT22;9974;52.146;14.668;2023-08-06T12:25:10;16.60;99.90
19652;DHT22;9974;52.146;14.668;2023-08-06T12:27:40;16.80;99.90
19652;DHT22;9974;52.146;14.668;2023-08-06T12:30:07;16.90;99.90
19652;DHT22;9974;52.146;14.668;2023-08-06T12:32:34;16.70;99.90
19652;DHT22;9974;52.146;14.668;2023-08-06T12:35:00;16.90;99.90
19652;DHT22;9974;52.146;14.668;2023-08-06T12:39:53;16.40;99.90
19652;DHT22;9974;52.146;14.668;2023-08-06T12:42:19;16.90;99.90
19652;DHT22;9974;52.146;14.668;2023-08-06T12:44:45;16.30;99.90
19652;DHT22;9974;52.146;14.668;2023-08-06T12:47:10;17.10;99.90
19652;DHT22;9974;52.146;14.668;2023-08-06T12:49:36;16.20;99.90
19652;DHT22;9974;52.146;14.668;2023-08-06T12:52:02;16.20;99.90
19652;DHT22;9974;52.146;14.668;2023-08-06T12:54:30;16.60;99.90
19652;DHT22;9974;52.146;14.668;2023-08-06T12:57:01;16.50;99.90
19652;DHT22;9974;52.146;14.668;2023-08-06T12:59:27;16.90;99.90
19652;DHT22;9974;52.146;14.668;2023-08-06T13:04:19;17.10;99.90
19652;DHT22;9974;52.146;14.668;2023-08-06T13:11:41;16.30;99.90
19652;DHT22;9974;52.146;14.668;2023-08-06T13:14:11;16.20;99.90
19652;DHT22;9974;52.146;14.668;2023-08-06T13:16:39;16.90;99.90
19652;DHT22;9974;52.146;14.668;2023-08-06T13:19:06;16.60;99.90
19652;DHT22;9974;52.146;14.668;2023-08-06T13:21:58;16.60;99.90
19652;DHT22;9974;52.146;14.668;2023-08-06T13:24:29;16.30;99.90
19652;DHT22;9974;52.146;14.668;2023-08-06T13:26:55;16.30;99.90
19652;DHT22;9974;52.146;14.668;2023-08-06T13:31:46;16.50;99.90
19652;DHT22;9974;52.146;14.668;2023-08-06T13:36:38;16.10;99.90
19652;DHT22;9974;52.146;14.668;2023-08-06T13:41:31;16.50;99.90
19652;DHT22;9974;52.146;14.668;2023-08-06T13:43:56;16.60;99.90
19652;DHT22;9974;52.146;14.668;2023-08-06T13:46:22;16.20;99.90
19652;DHT22;9974;52.146;14.668;2023-08-06T13:48:48;15.70;99.90
19652;DHT22;9974;52.146;14.668;2023-08-06T13:51:18;16.50;99.90
19652;DHT22;9974;52.146;14.668;2023-08-06T13:58:36;16.60;99.90
19652;DHT22;9974;52.146;14.668;2023-08-06T14:01:02;15.90;99.90
19652;DHT22;9974;52.146;14.668;2023-08-06T14:03:28;16.50;99.90
19652;DHT22;9974;52.146;14.668;2023-08-06T14:05:54;16.00;99.90
19652;DHT22;9974;52.146;14.668;2023-08-06T14:08:25;16.50;99.90
19652;DHT22;9974;52.146;14.668;2023-08-06T14:10:54;16.60;99.90
19652;DHT22;9974;52.146;14.668;2023-08-06T14:13:21;16.20;99.90
19652;DHT22;9974;52.146;14.668;2023-08-06T14:15:47;16.60;99.90
19652;DHT22;9974;52.146;14.668;2023-08-06T14:18:14;16.60;99.90
19652;DHT22;9974;52.146;14.668;2023-08-06T14:20:41;16.00;99.90
19652;DHT22;9974;52.146;14.668;2023-08-06T14:23:07;15.80;99.90
19652;DHT22;9974;52.146;14.668;2023-08-06T14:27:58;16.50;99.90
19652;DHT22;9974;52.146;14.668;2023-08-06T14:30:24;16.10;99.90
19652;DHT22;9974;52.146;14.668;2023-08-06T14:32:50;15.80;99.90
19652;DHT22;9974;52.146;14.668;2023-08-06T14:37:41;16.80;99.90
19652;DHT22;9974;52.146;14.668;2023-08-06T14:40:08;16.20;99.90
19652;DHT22;9974;52.146;14.668;2023-08-06T14:42:34;15.80;99.90
19652;DHT22;9974;52.146;14.668;2023-08-06T14:47:26;16.60;99.90
19652;DHT22;9974;52.146;14.668;2023-08-06T14:49:51;16.70;99.90
19652;DHT22;9974;52.146;14.668;2023-08-06T14:57:09;16.20;99.90
19652;DHT22;9974;52.146;14.668;2023-08-06T14:59:35;15.90;99.90
19652;DHT22;9974;52.146;14.668;2023-08-06T15:02:01;16.00;99.90
19652;DHT22;9974;52.146;14.668;2023-08-06T15:04:27;16.40;99.90
19652;DHT22;9974;52.146;14.668;2023-08-06T15:06:54;16.10;99.90
19652;DHT22;9974;52.146;14.668;2023-08-06T15:09:19;16.50;99.90
19652;DHT22;9974;52.146;14.668;2023-08-06T15:11:47;16.70;99.90
19652;DHT22;9974;52.146;14.668;2023-08-06T15:14:13;15.90;99.90
19652;DHT22;9974;52.146;14.668;2023-08-06T15:16:40;16.10;99.90
19652;DHT22;9974;52.146;14.668;2023-08-06T15:19:05;15.90;99.90
19652;DHT22;9974;52.146;14.668;2023-08-06T15:23:57;16.00;99.90
19652;DHT22;9974;52.146;14.668;2023-08-06T15:28:49;16.20;99.90
19652;DHT22;9974;52.146;14.668;2023-08-06T15:33:43;16.40;99.90
19652;DHT22;9974;52.146;14.668;2023-08-06T15:36:09;16.70;99.90
19652;DHT22;9974;52.146;14.668;2023-08-06T15:38:35;16.30;99.90
19652;DHT22;9974;52.146;14.668;2023-08-06T15:41:00;16.40;99.90
19652;DHT22;9974;52.146;14.668;2023-08-06T15:43:26;16.70;99.90
19652;DHT22;9974;52.146;14.668;2023-08-06T15:48:18;16.60;99.90
19652;DHT22;9974;52.146;14.668;2023-08-06T15:50:43;16.00;99.90
19652;DHT22;9974;52.146;14.668;2023-08-06T15:53:09;16.70;99.90
19652;DHT22;9974;52.146;14.668;2023-08-06T15:55:37;16.90;99.90
19652;DHT22;9974;52.146;14.668;2023-08-06T15:58:03;16.50;99.90
19652;DHT22;9974;52.146;14.668;2023-08-06T16:00:30;16.60;99.90
19652;DHT22;9974;52.146;14.668;2023-08-06T16:07:51;16.00;99.90
19652;DHT22;9974;52.146;14.668;2023-08-06T16:10:17;15.90;99.90
19652;DHT22;9974;52.146;14.668;2023-08-06T16:12:43;16.40;99.90
19652;DHT22;9974;52.146;14.668;2023-08-06T16:15:09;15.80;99.90
19652;DHT22;9974;52.146;14.668;2023-08-06T16:17:35;15.80;99.90
19652;DHT22;9974;52.146;14.668;2023-08-06T16:20:01;15.90;99.90
19652;DHT22;9974;52.146;14.668;2023-08-06T16:22:27;15.70;99.90
19652;DHT22;9974;52.146;14.668;2023-08-06T16:24:53;15.80;99.90
19652;DHT22;9974;52.146;14.668;2023-08-06T16:29:45;15.70;99.90
19652;DHT22;9974;52.146;14.668;2023-08-06T16:32:13;15.90;99.90
19652;DHT22;9974;52.146;14.668;2023-08-06T16:37:05;16.20;99.90
19652;DHT22;9974;52.146;14.668;2023-08-06T16:39:31;15.60;99.90
19652;DHT22;9974;52.146;14.668;2023-08-06T16:44:28;15.50;99.90
19652;DHT22;9974;52.146;14.668;2023-08-06T16:46:54;15.80;99.90
19652;DHT22;9974;52.146;14.668;2023-08-06T16:49:20;15.80;99.90
19652;DHT22;9974;52.146;14.668;2023-08-06T16:51:46;16.30;99.90
19652;DHT22;9974;52.146;14.668;2023-08-06T16:54:12;16.10;99.90
19652;DHT22;9974;52.146;14.668;2023-08-06T16:59:03;16.00;99.90
19652;DHT22;9974;52.146;14.668;2023-08-06T17:01:29;16.10;99.90
19652;DHT22;9974;52.146;14.668;2023-08-06T17:03:55;16.10;99.90
19652;DHT22;9974;52.146;14.668;2023-08-06T17:06:21;15.30;99.90
19652;DHT22;9974;52.146;14.668;2023-08-06T17:08:47;16.00;99.90
19652;DHT22;9974;52.146;14.668;2023-08-06T17:11:13;15.50;99.90
19652;DHT22;9974;52.146;14.668;2023-08-06T17:13:39;16.20;99.90
19652;DHT22;9974;52.146;14.668;2023-08-06T17:18:30;16.00;99.90
19652;DHT22;9974;52.146;14.668;2023-08-06T17:20:56;16.10;99.90
19652;DHT22;9974;52.146;14.668;2023-08-06T17:25:48;16.10;99.90
19652;DHT22;9974;52.146;14.668;2023-08-06T17:28:14;16.10;99.90
19652;DHT22;9974;52.146;14.668;2023-08-06T17:35:33;15.70;99.90
19652;DHT22;9974;52.146;14.668;2023-08-06T17:38:00;15.80;99.90
19652;DHT22;9974;52.146;14.668;2023-08-06T17:40:26;15.40;99.90
19652;DHT22;9974;52.146;14.668;2023-08-06T17:42:53;16.00;99.90
19652;DHT22;9974;52.146;14.668;2023-08-06T17:45:19;15.50;99.90
19652;DHT22;9974;52.146;14.668;2023-08-06T17:47:46;15.70;99.90
19652;DHT22;9974;52.146;14.668;2023-08-06T17:52:37;15.50;99.90
19652;DHT22;9974;52.146;14.668;2023-08-06T17:55:03;15.40;99.90
19652;DHT22;9974;52.146;14.668;2023-08-06T17:57:30;15.20;99.90
19652;DHT22;9974;52.146;14.668;2023-08-06T17:59:55;15.90;99.90
19652;DHT22;9974;52.146;14.668;2023-08-06T18:02:21;15.10;99.90
19652;DHT22;9974;52.146;14.668;2023-08-06T18:04:47;15.80;99.90
19652;DHT22;9974;52.146;14.668;2023-08-06T18:07:13;14.80;99.90
19652;DHT22;9974;52.146;14.668;2023-08-06T18:12:05;15.50;99.90
19652;DHT22;9974;52.146;14.668;2023-08-06T18:14:34;14.90;99.90
19652;DHT22;9974;52.146;14.668;2023-08-06T18:21:53;14.80;99.90
19652;DHT22;9974;52.146;14.668;2023-08-06T18:24:18;15.00;99.90
19652;DHT22;9974;52.146;14.668;2023-08-06T18:26:44;15.50;99.90
19652;DHT22;9974;52.146;14.668;2023-08-06T18:29:10;14.50;99.90
19652;DHT22;9974;52.146;14.668;2023-08-06T18:31:36;15.20;99.90
19652;DHT22;9974;52.146;14.668;2023-08-06T18:34:02;14.70;99.90
19652;DHT22;9974;52.146;14.668;2023-08-06T18:36:28;14.80;99.90
19652;DHT22;9974;52.146;14.668;2023-08-06T18:43:48;15.40;99.90
19652;DHT22;9974;52.146;14.668;2023-08-06T18:46:14;15.30;99.90
19652;DHT22;9974;52.146;14.668;2023-08-06T18:48:39;15.30;99.90
19652;DHT22;9974;52.146;14.668;2023-08-06T18:51:05;15.00;99.90
19652;DHT22;9974;52.146;14.668;2023-08-06T18:53:31;15.20;99.90
19652;DHT22;9974;52.146;14.668;2023-08-06T18:58:22;14.60;99.90